Time;durP1;ratioP1;P1;durP2;ratioP2;P2;SDS_P1;SDS_P2;PMS_P1;PMS_P2;Temp;Humidity;BMP_temperature;BMP_pressure;BME280_temperature;BME280_humidity;BME280_pressure;Samples;Min_cycle;Max_cycle;Signal;HPM_P1;HPM_P2
2023/09/30 00:00:36;;;;;;;;;;;16.70;99.90;;;;;;5011251;28;20344;-78
2023/09/30 00:03:04;;;;;;;;;;;16.60;99.90;;;;;;5024656;28;20056;-78
2023/09/30 00:05:32;;;;;;;;;;;16.60;99.90;;;;;;5027321;28;19921;-79
2023/09/30 00:08:00;;;;;;;;;;;16.70;99.90;;;;;;5027992;28;19928;-79
2023/09/30 00:10:30;;;;;;;;;;;16.70;99.90;;;;;;5022915;28;19921;-80
2023/09/30 00:12:58;;;;;;;;;;;16.70;99.90;;;;;;5015378;28;19930;-78
2023/09/30 00:15:26;;;;;;;;;;;16.70;99.90;;;;;;5033575;28;19921;-78
2023/09/30 00:17:54;;;;;;;;;;;16.70;99.90;;;;;;5036831;28;19921;-77
2023/09/30 00:20:22;;;;;;;;;;;16.70;99.90;;;;;;5045825;28;19935;-75
2023/09/30 00:22:50;;;;;;;;;;;16.70;99.90;;;;;;5032360;28;19967;-75
2023/09/30 00:25:17;;;;;;;;;;;16.60;99.90;;;;;;5044308;28;19925;-77
2023/09/30 00:27:47;;;;;;;;;;;16.60;99.90;;;;;;5032290;28;19925;-79
2023/09/30 00:30:14;;;;;;;;;;;16.60;99.90;;;;;;5033714;28;20399;-78
2023/09/30 00:32:42;;;;;;;;;;;16.70;99.90;;;;;;5043474;28;19921;-75
2023/09/30 00:35:11;;;;;;;;;;;16.60;99.90;;;;;;5039712;28;19953;-78
2023/09/30 00:37:39;;;;;;;;;;;16.60;99.90;;;;;;5036369;28;20264;-78
2023/09/30 00:40:08;;;;;;;;;;;16.60;99.90;;;;;;5034693;28;19944;-77
2023/09/30 00:42:35;;;;;;;;;;;16.60;99.90;;;;;;5039497;28;19971;-77
2023/09/30 00:45:05;;;;;;;;;;;16.40;99.90;;;;;;5032589;28;20450;-80
2023/09/30 00:47:34;;;;;;;;;;;16.50;99.90;;;;;;5040745;28;19921;-77
2023/09/30 00:50:03;;;;;;;;;;;16.60;99.90;;;;;;5036896;28;19925;-78
2023/09/30 00:52:32;;;;;;;;;;;16.70;99.90;;;;;;5036706;28;19928;-78
2023/09/30 00:55:00;;;;;;;;;;;16.70;99.90;;;;;;5033120;28;19921;-79
2023/09/30 00:57:28;;;;;;;;;;;16.60;99.90;;;;;;5032213;28;19921;-80
2023/09/30 00:59:57;;;;;;;;;;;16.50;99.90;;;;;;5032127;28;19921;-77
2023/09/30 01:02:26;;;;;;;;;;;16.60;99.90;;;;;;5030814;28;19921;-77
2023/09/30 01:04:54;;;;;;;;;;;16.60;99.90;;;;;;5031131;28;19921;-78
2023/09/30 01:07:22;;;;;;;;;;;16.60;99.90;;;;;;5030839;28;19976;-78
2023/09/30 01:09:50;;;;;;;;;;;16.70;99.90;;;;;;5024427;28;19921;-79
2023/09/30 01:12:18;;;;;;;;;;;16.70;99.90;;;;;;5031256;28;19924;-78
2023/09/30 01:14:46;;;;;;;;;;;16.60;99.90;;;;;;5017632;28;20019;-78
2023/09/30 01:17:14;;;;;;;;;;;16.60;99.90;;;;;;5030786;28;19990;-82
2023/09/30 01:19:43;;;;;;;;;;;16.60;99.90;;;;;;5028795;28;20059;-81
2023/09/30 01:22:12;;;;;;;;;;;16.40;99.90;;;;;;5030233;28;19925;-77
2023/09/30 01:24:41;;;;;;;;;;;16.40;99.90;;;;;;5032285;28;20331;-80
2023/09/30 01:27:09;;;;;;;;;;;16.40;99.90;;;;;;5032285;28;19925;-78
2023/09/30 01:29:38;;;;;;;;;;;16.40;99.90;;;;;;5033036;28;20297;-78
2023/09/30 01:32:07;;;;;;;;;;;16.40;99.90;;;;;;5032318;28;20012;-77
2023/09/30 01:34:35;;;;;;;;;;;16.50;99.90;;;;;;5031428;28;19930;-80
2023/09/30 01:37:03;;;;;;;;;;;16.50;99.90;;;;;;5030811;28;19951;-78
2023/09/30 01:39:33;;;;;;;;;;;16.50;99.90;;;;;;5033073;28;19920;-79
2023/09/30 01:42:01;;;;;;;;;;;16.60;99.90;;;;;;5030745;28;19924;-78
2023/09/30 01:44:29;;;;;;;;;;;16.60;99.90;;;;;;5034182;28;19932;-79
2023/09/30 01:46:57;;;;;;;;;;;16.60;99.90;;;;;;5031354;28;20391;-80
2023/09/30 01:49:26;;;;;;;;;;;16.50;99.90;;;;;;5032540;28;19921;-77
2023/09/30 01:51:54;;;;;;;;;;;16.40;99.90;;;;;;5025532;28;19991;-77
2023/09/30 01:54:29;;;;;;;;;;;16.40;99.90;;;;;;5032482;28;20388;-76
2023/09/30 01:56:58;;;;;;;;;;;16.30;99.90;;;;;;5032603;28;19929;-77
2023/09/30 01:59:26;;;;;;;;;;;16.30;99.90;;;;;;5033851;28;19928;-77
2023/09/30 02:01:54;;;;;;;;;;;16.30;99.90;;;;;;5035488;28;19979;-80
2023/09/30 02:04:21;;;;;;;;;;;16.30;99.90;;;;;;5027889;28;19921;-82
2023/09/30 02:06:49;;;;;;;;;;;16.30;99.90;;;;;;5030609;28;20012;-78
2023/09/30 02:09:17;;;;;;;;;;;16.20;99.90;;;;;;5030781;28;20411;-79
2023/09/30 02:11:45;;;;;;;;;;;16.10;99.90;;;;;;5032677;28;19924;-78
2023/09/30 02:14:14;;;;;;;;;;;16.00;99.90;;;;;;5030933;28;19929;-78
2023/09/30 02:16:42;;;;;;;;;;;15.80;99.90;;;;;;5042456;28;19920;-80
2023/09/30 02:19:11;;;;;;;;;;;15.70;99.90;;;;;;5025153;28;19921;-81
2023/09/30 02:21:41;;;;;;;;;;;15.50;99.90;;;;;;5024377;28;19933;-79
2023/09/30 02:24:10;;;;;;;;;;;15.30;99.90;;;;;;5022769;28;19959;-78
2023/09/30 02:26:38;;;;;;;;;;;15.30;99.90;;;;;;5021559;28;19936;-79
2023/09/30 02:29:07;;;;;;;;;;;15.20;99.90;;;;;;5020727;28;20299;-79
2023/09/30 02:31:37;;;;;;;;;;;15.10;99.90;;;;;;5021700;28;19925;-80
2023/09/30 02:34:04;;;;;;;;;;;15.10;99.90;;;;;;5022952;28;19979;-79
2023/09/30 02:36:32;;;;;;;;;;;15.00;99.90;;;;;;5003836;28;20797;-81
2023/09/30 02:39:00;;;;;;;;;;;15.10;99.90;;;;;;5022124;28;19925;-79
2023/09/30 02:41:29;;;;;;;;;;;15.00;99.90;;;;;;5021639;28;20394;-79
2023/09/30 02:43:56;;;;;;;;;;;15.10;99.90;;;;;;5023981;28;19956;-79
2023/09/30 02:46:27;;;;;;;;;;;15.20;99.90;;;;;;5027519;28;19936;-79
2023/09/30 02:48:57;;;;;;;;;;;15.30;99.90;;;;;;5027294;28;19924;-81
2023/09/30 02:51:25;;;;;;;;;;;15.40;99.90;;;;;;5024741;28;20020;-78
2023/09/30 02:53:53;;;;;;;;;;;15.40;99.90;;;;;;5031151;28;19929;-78
2023/09/30 02:56:24;;;;;;;;;;;15.40;99.90;;;;;;5030540;28;20020;-77
2023/09/30 02:58:52;;;;;;;;;;;15.50;99.90;;;;;;5029092;28;19925;-78
2023/09/30 03:01:20;;;;;;;;;;;15.50;99.90;;;;;;5029183;28;20226;-81
2023/09/30 03:03:48;;;;;;;;;;;15.60;99.90;;;;;;5027777;28;19935;-78
2023/09/30 03:06:18;;;;;;;;;;;15.70;99.90;;;;;;5025553;28;19936;-73
2023/09/30 03:08:46;;;;;;;;;;;15.70;99.90;;;;;;5031599;28;20454;-77
2023/09/30 03:11:14;;;;;;;;;;;15.70;99.90;;;;;;5028640;28;19936;-80
2023/09/30 03:13:42;;;;;;;;;;;15.60;99.90;;;;;;5013397;28;19924;-79
2023/09/30 03:16:10;;;;;;;;;;;15.60;99.90;;;;;;5023914;28;19929;-77
2023/09/30 03:18:38;;;;;;;;;;;15.60;99.90;;;;;;5029230;28;19951;-77
2023/09/30 03:21:14;;;;;;;;;;;15.70;99.90;;;;;;5023931;28;19936;-79
2023/09/30 03:23:43;;;;;;;;;;;15.50;99.90;;;;;;5032509;28;20019;-77
2023/09/30 03:26:11;;;;;;;;;;;15.60;99.90;;;;;;5036060;28;19960;-78
2023/09/30 03:28:38;;;;;;;;;;;15.60;99.90;;;;;;5026045;28;19992;-77
2023/09/30 03:31:06;;;;;;;;;;;15.60;99.90;;;;;;5023845;28;20418;-80
2023/09/30 03:33:34;;;;;;;;;;;15.60;99.90;;;;;;5028818;28;19932;-81
2023/09/30 03:36:03;;;;;;;;;;;15.70;99.90;;;;;;5029830;28;20040;-80
2023/09/30 03:38:31;;;;;;;;;;;15.60;99.90;;;;;;5025346;28;19929;-79
2023/09/30 03:41:01;;;;;;;;;;;15.50;99.90;;;;;;5024441;28;19944;-78
2023/09/30 03:43:29;;;;;;;;;;;15.40;99.90;;;;;;5030464;28;20392;-80
2023/09/30 03:45:57;;;;;;;;;;;15.30;99.90;;;;;;5028895;28;19920;-77
2023/09/30 03:48:26;;;;;;;;;;;15.40;99.90;;;;;;5023233;28;19936;-78
2023/09/30 03:50:54;;;;;;;;;;;15.40;99.90;;;;;;5019408;28;19929;-79
2023/09/30 03:53:25;;;;;;;;;;;15.40;99.90;;;;;;5029331;28;19929;-77
2023/09/30 03:55:53;;;;;;;;;;;15.40;99.90;;;;;;5025539;28;19928;-81
2023/09/30 03:58:23;;;;;;;;;;;15.40;99.90;;;;;;5028197;28;19932;-79
2023/09/30 04:00:51;;;;;;;;;;;15.40;99.90;;;;;;5019611;28;19991;-81
2023/09/30 04:03:19;;;;;;;;;;;15.50;99.90;;;;;;5027187;28;19929;-76
2023/09/30 04:05:50;;;;;;;;;;;15.50;99.90;;;;;;5022796;28;19994;-81
2023/09/30 04:08:22;;;;;;;;;;;15.50;99.90;;;;;;5029554;28;19929;-78
2023/09/30 04:10:50;;;;;;;;;;;15.50;99.90;;;;;;5020760;28;19933;-77
2023/09/30 04:13:19;;;;;;;;;;;15.50;99.90;;;;;;5027315;28;20029;-78
2023/09/30 04:15:49;;;;;;;;;;;15.50;99.90;;;;;;5028922;28;19969;-78
2023/09/30 04:18:19;;;;;;;;;;;15.50;99.90;;;;;;5027361;28;20403;-78
2023/09/30 04:20:47;;;;;;;;;;;15.50;99.90;;;;;;5023038;28;19939;-79
2023/09/30 04:23:15;;;;;;;;;;;15.50;99.90;;;;;;5024263;28;19929;-79
2023/09/30 04:25:44;;;;;;;;;;;15.60;99.90;;;;;;5025757;28;19929;-81
2023/09/30 04:28:11;;;;;;;;;;;15.60;99.90;;;;;;5009005;28;20018;-81
2023/09/30 04:30:39;;;;;;;;;;;15.70;99.90;;;;;;5025612;28;20461;-77
2023/09/30 04:33:10;;;;;;;;;;;15.60;99.90;;;;;;5018952;28;19928;-78
2023/09/30 04:35:38;;;;;;;;;;;15.70;99.90;;;;;;5029613;28;20437;-78
2023/09/30 04:38:07;;;;;;;;;;;15.70;99.90;;;;;;5026784;28;20015;-78
2023/09/30 04:40:35;;;;;;;;;;;15.70;99.90;;;;;;5023318;28;19983;-77
2023/09/30 04:43:03;;;;;;;;;;;15.70;99.90;;;;;;5021994;28;19932;-77
2023/09/30 04:45:30;;;;;;;;;;;15.70;99.90;;;;;;5023742;28;19920;-78
2023/09/30 04:47:58;;;;;;;;;;;15.70;99.90;;;;;;5027268;28;19925;-81
2023/09/30 04:50:28;;;;;;;;;;;15.70;99.90;;;;;;5021517;28;19925;-80
2023/09/30 04:52:56;;;;;;;;;;;15.70;99.90;;;;;;5014257;28;19983;-76
2023/09/30 04:55:24;;;;;;;;;;;15.50;99.90;;;;;;5011732;28;20015;-78
2023/09/30 04:57:52;;;;;;;;;;;15.30;99.90;;;;;;5010790;28;20355;-73
2023/09/30 05:00:24;;;;;;;;;;;15.20;99.90;;;;;;5001266;28;20307;-77
2023/09/30 05:02:53;;;;;;;;;;;15.10;99.90;;;;;;5013266;28;19936;-77
2023/09/30 05:05:22;;;;;;;6.05;3.00;;;15.20;99.90;;;;;;5012137;28;19975;-77
2023/09/30 05:07:51;;;;;;;3.08;2.35;;;15.30;99.90;;;;;;5009794;28;20270;-77
2023/09/30 05:10:19;;;;;;;2.60;1.70;;;15.30;99.90;;;;;;5005229;28;20205;-77
2023/09/30 05:12:47;;;;;;;6.28;2.90;;;15.30;99.90;;;;;;5009584;28;20228;-77
2023/09/30 05:15:16;;;;;;;3.70;2.85;;;15.20;99.90;;;;;;5004513;28;20228;-78
2023/09/30 05:17:45;;;;;;;4.22;2.47;;;15.20;99.90;;;;;;5013972;28;20208;-77
2023/09/30 05:20:17;;;;;;;6.15;2.72;;;15.10;99.90;;;;;;5003160;28;20573;-77
2023/09/30 05:22:46;;;;;;;7.13;3.65;;;15.20;99.90;;;;;;5009971;28;20260;-77
2023/09/30 05:25:16;;;;;;;3.60;2.10;;;15.10;99.90;;;;;;5012900;28;20240;-78
2023/09/30 05:27:47;;;;;;;5.43;2.83;;;15.10;99.90;;;;;;5013664;28;20189;-78
2023/09/30 05:30:16;;;;;;;4.13;2.65;;;15.00;99.90;;;;;;5002817;28;20570;-79
2023/09/30 05:32:46;;;;;;;10.05;3.97;;;15.00;99.90;;;;;;5007978;28;20232;-78
2023/09/30 05:35:16;;;;;;;5.78;3.22;;;14.80;99.90;;;;;;5015948;28;20227;-77
2023/09/30 05:37:45;;;;;;;2.53;2.33;;;14.80;99.90;;;;;;5012287;28;20201;-78
2023/09/30 05:40:21;;;;;;;11.32;4.00;;;14.50;99.90;;;;;;5004173;28;20323;-78
2023/09/30 05:42:51;;;;;;;6.30;3.38;;;14.40;99.90;;;;;;4998984;28;20771;-78
2023/09/30 05:45:20;;;;;;;8.10;3.28;;;14.30;99.90;;;;;;5011466;28;20204;-80
2023/09/30 05:47:48;;;;;;;4.50;3.22;;;14.20;99.90;;;;;;5009307;28;20219;-81
2023/09/30 05:50:24;;;;;;;6.78;4.10;;;14.10;99.90;;;;;;5003941;28;20200;-80
2023/09/30 05:52:53;;;;;;;5.70;3.20;;;14.10;99.90;;;;;;5026093;28;20243;-79
2023/09/30 05:55:22;;;;;;;4.38;3.28;;;14.10;99.90;;;;;;5034166;28;20196;-78
2023/09/30 05:57:52;;;;;;;7.25;3.95;;;14.10;99.90;;;;;;5031493;28;20210;-78
2023/09/30 06:00:23;;;;;;;4.88;3.42;;;14.10;99.90;;;;;;5023849;28;20306;-79
2023/09/30 06:02:52;;;;;;;3.80;3.45;;;14.10;99.90;;;;;;5027024;28;20224;-79
2023/09/30 06:05:22;;;;;;;7.47;4.30;;;14.00;99.90;;;;;;5029592;28;20203;-79
2023/09/30 06:07:50;;;;;;;9.45;3.60;;;14.00;99.90;;;;;;5027701;28;21241;-78
2023/09/30 06:10:19;;;;;;;5.68;3.83;;;13.90;99.90;;;;;;5023401;28;20258;-78
2023/09/30 06:12:49;;;;;;;5.35;3.78;;;13.90;99.90;;;;;;5026817;28;20228;-78
2023/09/30 06:15:21;;;;;;;4.55;3.28;;;14.00;99.90;;;;;;5023534;28;20208;-77
2023/09/30 06:17:51;;;;;;;5.65;3.58;;;14.10;99.90;;;;;;5029172;28;20209;-77
2023/09/30 06:20:22;;;;;;;4.35;2.75;;;14.20;99.90;;;;;;5031891;28;20235;-78
2023/09/30 06:22:50;;;;;;;5.80;3.30;;;14.20;99.90;;;;;;5024547;28;20236;-77
2023/09/30 06:25:18;;;;;;;4.72;2.65;;;14.20;99.90;;;;;;5034431;28;20208;-78
2023/09/30 06:27:49;;;;;;;5.72;3.38;;;13.90;99.90;;;;;;5028356;28;20228;-78
2023/09/30 06:30:19;;;;;;;6.60;3.88;;;13.90;99.90;;;;;;5026727;28;20282;-80
2023/09/30 06:32:47;;;;;;;7.95;4.10;;;13.90;99.90;;;;;;5034575;28;20232;-78
2023/09/30 06:35:15;;;;;;;7.13;3.30;;;14.00;99.90;;;;;;5032563;28;20297;-79
2023/09/30 06:37:45;;;;;;;6.28;3.70;;;14.10;99.90;;;;;;5028758;28;20219;-79
2023/09/30 06:40:14;;;;;;;5.57;3.47;;;14.10;99.90;;;;;;5001623;28;21188;-79
2023/09/30 06:42:42;;;;;;;4.55;3.22;;;14.10;99.90;;;;;;5029248;28;20255;-78
2023/09/30 06:45:12;;;;;;;4.30;3.90;;;14.00;99.90;;;;;;5030687;28;20216;-79
2023/09/30 06:47:42;;;;;;;4.20;3.15;;;14.00;99.90;;;;;;5024982;28;20203;-79
2023/09/30 06:50:12;;;;;;;5.57;3.53;;;14.10;99.90;;;;;;5027295;28;20192;-80
2023/09/30 06:52:42;;;;;;;7.53;4.18;;;14.10;99.90;;;;;;5019101;28;20960;-80
2023/09/30 06:55:13;;;;;;;4.97;3.72;;;14.10;99.90;;;;;;5017655;28;20305;-77
2023/09/30 06:57:41;;;;;;;3.70;3.40;;;14.10;99.90;;;;;;5017345;28;20212;-78
2023/09/30 07:00:13;;;;;;;4.95;3.35;;;14.10;99.90;;;;;;5004111;28;20217;-76
2023/09/30 07:02:42;;;;;;;4.50;3.63;;;14.10;99.90;;;;;;5017780;28;20232;-78
2023/09/30 07:05:12;;;;;;;7.35;4.32;;;14.10;99.90;;;;;;5017525;28;20323;-78
2023/09/30 07:07:42;;;;;;;5.30;3.85;;;14.10;99.90;;;;;;5018242;28;20276;-80
2023/09/30 07:10:11;;;;;;;6.20;3.33;;;14.20;99.90;;;;;;5015317;28;20203;-80
2023/09/30 07:12:39;;;;;;;7.30;3.67;;;14.20;99.90;;;;;;5016041;28;20232;-77
2023/09/30 07:15:08;;;;;;;7.05;4.15;;;14.30;99.90;;;;;;5013916;28;20204;-79
2023/09/30 07:17:38;;;;;;;6.78;3.15;;;14.50;99.90;;;;;;5013419;28;20219;-75
2023/09/30 07:20:09;;;;;;;6.82;2.92;;;14.80;99.90;;;;;;5013157;28;20218;-77
2023/09/30 07:22:38;;;;;;;5.38;2.95;;;15.00;99.90;;;;;;5015341;28;20232;-77
2023/09/30 07:25:10;;;;;;;6.32;3.85;;;15.20;99.90;;;;;;5017404;28;20247;-79
2023/09/30 07:27:38;;;;;;;4.53;3.35;;;15.40;99.90;;;;;;5016551;28;20790;-76
2023/09/30 07:30:07;;;;;;;4.05;2.47;;;15.70;99.90;;;;;;5014469;28;20876;-77
2023/09/30 07:32:35;;;;;;;4.55;3.05;;;15.80;99.90;;;;;;5017585;28;20712;-78
2023/09/30 07:35:06;;;;;;;2.90;2.50;;;16.00;99.90;;;;;;5016382;28;20224;-76
2023/09/30 07:37:33;;;;;;;3.78;2.58;;;16.20;99.90;;;;;;5017991;28;20213;-78
2023/09/30 07:40:02;;;;;;;3.38;2.50;;;16.40;99.90;;;;;;5015676;28;20208;-75
2023/09/30 07:42:30;;;;;;;6.93;2.45;;;16.60;99.90;;;;;;5017151;28;20220;-77
2023/09/30 07:44:58;;;;;;;9.20;3.85;;;16.70;99.90;;;;;;5016750;28;20288;-78
2023/09/30 07:47:26;;;;;;;6.05;4.03;;;16.70;99.90;;;;;;5017645;28;20702;-83
2023/09/30 07:49:54;;;;;;;3.28;2.78;;;16.80;99.90;;;;;;5014888;28;20227;-81
2023/09/30 07:52:23;;;;;;;4.40;3.50;;;16.90;99.90;;;;;;5020460;28;20355;-78
2023/09/30 07:54:51;;;;;;;3.90;2.72;;;17.10;99.90;;;;;;5025889;28;20207;-79
2023/09/30 07:57:20;;;;;;;5.82;2.47;;;17.30;99.90;;;;;;5025870;28;20200;-79
2023/09/30 07:59:48;;;;;;;2.83;2.53;;;17.40;99.90;;;;;;5028910;28;20223;-81
2023/09/30 08:02:17;;;;;;;4.93;2.85;;;17.50;99.90;;;;;;5029486;28;20231;-79
2023/09/30 08:04:45;;;;;;;7.15;2.85;;;17.60;99.90;;;;;;5020953;28;20209;-81
2023/09/30 08:07:13;;;;;;;4.30;2.88;;;17.70;99.90;;;;;;5019927;28;20209;-79
2023/09/30 08:09:42;;;;;;;6.43;3.03;;;17.80;99.90;;;;;;5021240;28;20602;-79
2023/09/30 08:12:10;;;;;;;3.38;3.08;;;17.90;99.90;;;;;;5027097;28;20232;-79
2023/09/30 08:14:38;;;;;;;3.00;2.80;;;17.90;99.90;;;;;;5023464;28;20227;-79
2023/09/30 08:17:06;;;;;;;4.05;2.85;;;18.10;99.90;;;;;;5028336;28;20282;-79
2023/09/30 08:19:34;;;;;;;3.88;3.25;;;18.20;99.90;;;;;;5020943;28;20308;-79
2023/09/30 08:22:03;;;;;;;4.22;3.55;;;18.30;99.90;;;;;;5026515;28;20309;-77
2023/09/30 08:24:31;;;;;;;5.85;3.17;;;18.40;99.90;;;;;;5028703;28;20196;-76
2023/09/30 08:27:00;;;;;;;3.22;2.92;;;18.60;99.90;;;;;;5019747;28;20200;-80
2023/09/30 08:29:28;;;;;;;3.95;2.75;;;18.70;99.90;;;;;;5025519;28;20204;-77
2023/09/30 08:31:56;;;;;;;5.45;3.67;;;18.80;99.90;;;;;;5026686;28;20224;-79
2023/09/30 08:34:24;;;;;;;3.35;3.05;;;19.00;99.90;;;;;;5031103;28;20199;-79
2023/09/30 08:36:52;;;;;;;5.28;2.88;;;19.10;99.90;;;;;;5029249;28;20216;-76
2023/09/30 08:39:20;;;;;;;5.93;3.70;;;19.30;99.90;;;;;;5033379;28;20208;-76
2023/09/30 08:41:48;;;;;;;3.67;2.65;;;19.30;99.90;;;;;;5020932;28;20729;-78
2023/09/30 08:44:17;;;;;;;5.53;3.00;;;19.30;99.90;;;;;;5023519;28;20951;-79
2023/09/30 08:46:47;;;;;;;4.22;3.38;;;19.50;99.90;;;;;;5032489;28;20211;-77
2023/09/30 08:49:16;;;;;;;4.45;3.08;;;19.60;99.90;;;;;;5034526;28;20641;-76
2023/09/30 08:51:44;;;;;;;3.45;2.95;;;19.90;99.90;;;;;;5022078;28;20407;-75
2023/09/30 08:54:12;;;;;;;7.78;3.10;;;20.20;99.90;;;;;;5014365;28;20242;-77
2023/09/30 08:56:44;;;;;;;5.45;2.63;;;20.40;99.90;;;;;;5015154;28;20208;-75
2023/09/30 08:59:13;;;;;;;5.68;2.90;;;20.70;99.90;;;;;;5014219;28;20333;-77
2023/09/30 09:01:42;;;;;;;3.83;2.78;;;20.60;99.90;;;;;;5013148;28;20224;-76
2023/09/30 09:04:10;;;;;;;3.17;2.25;;;20.70;99.90;;;;;;5015339;28;20298;-74
2023/09/30 09:06:38;;;;;;;3.67;2.80;;;20.90;99.90;;;;;;5012961;28;20683;-77
2023/09/30 09:09:16;;;;;;;6.15;3.60;;;20.90;99.90;;;;;;5014942;28;20209;-76
2023/09/30 09:11:45;;;;;;;3.13;2.30;;;21.10;99.90;;;;;;5014496;28;20330;-76
2023/09/30 09:14:14;;;;;;;5.13;2.85;;;21.30;99.90;;;;;;5013753;28;20208;-76
2023/09/30 09:16:57;;;;;;;2.92;2.17;;;21.30;99.90;;;;;;5014512;28;20205;-76
2023/09/30 09:19:25;;;;;;;14.20;3.00;;;21.40;99.90;;;;;;5012139;28;20201;-76
2023/09/30 09:21:57;;;;;;;3.97;2.38;;;21.60;99.90;;;;;;5014928;28;20224;-76
2023/09/30 09:24:29;;;;;;;4.45;2.58;;;21.70;99.90;;;;;;5014294;28;20671;-76
2023/09/30 09:27:08;;;;;;;3.42;2.40;;;22.10;99.90;;;;;;5015709;28;20732;-76
2023/09/30 09:29:37;;;;;;;6.93;2.30;;;22.40;99.90;;;;;;5013370;28;20212;-75
2023/09/30 09:32:10;;;;;;;2.17;1.80;;;22.60;99.90;;;;;;5014737;28;20229;-76
2023/09/30 09:34:39;;;;;;;2.97;2.33;;;22.70;99.90;;;;;;5015326;28;20217;-76
2023/09/30 09:37:15;;;;;;;4.05;2.10;;;22.70;99.90;;;;;;5014961;28;20212;-75
2023/09/30 09:39:53;;;;;;;3.13;2.35;;;22.80;99.90;;;;;;5013883;28;20204;-76
2023/09/30 09:42:28;;;;;;;1.60;1.48;;;22.90;99.90;;;;;;5014489;28;20239;-75
2023/09/30 09:44:58;;;;;;;3.83;1.80;;;22.80;99.90;;;;;;5015747;28;20668;-78
2023/09/30 09:47:28;;;;;;;2.25;1.25;;;23.00;99.90;;;;;;5015766;28;20227;-75
2023/09/30 09:49:58;;;;;;;5.18;1.90;;;23.00;99.90;;;;;;5013796;28;20254;-76
2023/09/30 09:52:26;;;;;;;2.55;1.73;;;23.20;99.90;;;;;;5027860;28;20236;-76
2023/09/30 09:54:55;;;;;;;1.83;1.65;;;23.10;99.90;;;;;;5030305;28;20208;-75
2023/09/30 09:57:25;;;;;;;2.40;1.00;;;23.30;99.90;;;;;;5031042;28;21043;-76
2023/09/30 09:59:55;;;;;;;1.75;1.45;;;23.60;99.90;;;;;;5022823;28;20775;-74
2023/09/30 10:02:28;;;;;;;3.42;1.65;;;23.90;99.90;;;;;;5035050;28;20393;-76
2023/09/30 10:04:57;;;;;;;1.83;1.30;;;23.90;99.90;;;;;;5030207;28;20678;-77
2023/09/30 10:07:28;;;;;;;1.50;1.40;;;23.70;99.90;;;;;;5034059;28;20212;-74
2023/09/30 10:09:59;;;;;;;2.38;1.45;;;23.70;99.90;;;;;;5033274;28;20261;-73
2023/09/30 10:12:28;;;;;;;2.58;1.30;;;23.90;99.90;;;;;;5030094;28;20599;-74
2023/09/30 10:14:56;;;;;;;1.95;1.27;;;24.30;99.90;;;;;;5035915;28;20777;-74
2023/09/30 10:17:59;;;;;;;1.75;1.35;;;24.40;99.90;;;;;;5035199;28;20622;-74
2023/09/30 10:20:28;;;;;;;2.70;1.30;;;24.50;99.90;;;;;;5029712;28;20215;-75
2023/09/30 10:23:24;;;;;;;1.45;1.20;;;24.60;99.70;;;;;;5039165;28;20745;-75
2023/09/30 10:25:57;;;;;;;3.45;1.40;;;24.60;99.40;;;;;;5033444;28;20610;-73
2023/09/30 10:28:36;;;;;;;4.00;1.60;;;24.60;98.50;;;;;;5031578;28;20222;-72
2023/09/30 10:31:17;;;;;;;1.23;0.70;;;24.70;98.30;;;;;;5027804;28;20852;-73
2023/09/30 10:34:31;;;;;;;2.08;1.55;;;24.70;99.30;;;;;;5031590;28;20262;-75
2023/09/30 10:37:21;;;;;;;2.63;1.20;;;25.00;97.70;;;;;;5032920;28;20245;-74
2023/09/30 10:39:58;;;;;;;1.15;0.95;;;25.10;97.70;;;;;;5031673;28;20208;-73
2023/09/30 10:42:49;;;;;;;3.83;1.40;;;25.20;95.30;;;;;;5035910;28;20236;-75
2023/09/30 10:45:46;;;;;;;1.42;1.15;;;25.20;95.80;;;;;;5036677;28;20765;-73
2023/09/30 10:48:42;;;;;;;2.63;1.90;;;24.90;96.50;;;;;;5038141;28;20345;-73
2023/09/30 10:51:18;;;;;;;1.73;1.13;;;24.30;97.90;;;;;;4983781;28;20244;-74
2023/09/30 10:53:51;;;;;;;1.90;0.85;;;24.20;97.50;;;;;;5015778;28;20803;-73
2023/09/30 10:56:20;;;;;;;2.00;1.30;;;24.10;97.00;;;;;;5016273;28;20209;-73
2023/09/30 10:58:49;;;;;;;1.70;1.05;;;23.80;97.00;;;;;;5016268;28;20216;-75
2023/09/30 11:01:18;;;;;;;1.83;1.23;;;23.80;96.50;;;;;;5006388;28;20225;-73
2023/09/30 11:03:50;;;;;;;1.30;1.10;;;23.80;96.10;;;;;;5005031;28;20229;-75
2023/09/30 11:06:20;;;;;;;1.25;1.08;;;23.90;97.40;;;;;;4998261;28;20216;-74
2023/09/30 11:08:55;;;;;;;1.75;1.63;;;24.30;96.20;;;;;;5017999;28;20209;-75
2023/09/30 11:11:37;;;;;;;3.28;1.13;;;24.20;97.70;;;;;;5011493;28;20605;-75
2023/09/30 11:14:18;;;;;;;3.40;1.25;;;24.50;96.70;;;;;;5016933;28;20204;-74
2023/09/30 11:16:46;;;;;;;1.38;1.02;;;24.40;96.00;;;;;;5014256;28;20196;-76
2023/09/30 11:19:14;;;;;;;2.47;1.00;;;24.70;97.00;;;;;;5009943;28;20217;-75
2023/09/30 11:21:44;;;;;;;2.65;1.30;;;25.10;95.60;;;;;;5011335;28;20282;-74
2023/09/30 11:24:15;;;;;;;1.75;1.00;;;25.10;94.40;;;;;;5016669;28;20235;-75
2023/09/30 11:26:43;;;;;;;1.73;1.35;;;25.40;94.90;;;;;;5008846;28;20209;-75
2023/09/30 11:29:13;;;;;;;1.67;1.35;;;25.20;94.80;;;;;;5006467;28;20217;-73
2023/09/30 11:31:42;;;;;;;1.40;1.00;;;25.30;94.40;;;;;;5009271;28;20229;-75
2023/09/30 11:34:11;;;;;;;1.42;1.33;;;25.60;94.10;;;;;;5018607;28;20208;-75
2023/09/30 11:36:42;;;;;;;3.95;1.40;;;25.70;94.50;;;;;;5013797;28;20205;-75
2023/09/30 11:39:13;;;;;;;1.23;0.73;;;26.00;93.30;;;;;;5014780;28;20219;-74
2023/09/30 11:41:43;;;;;;;1.50;1.00;;;26.20;93.70;;;;;;5014939;28;20731;-76
2023/09/30 11:44:14;;;;;;;1.05;0.95;;;26.40;93.20;;;;;;5019159;28;20312;-75
2023/09/30 11:46:53;;;;;;;0.80;0.75;;;26.40;94.40;;;;;;5016123;28;20220;-76
2023/09/30 11:49:27;;;;;;;1.10;1.00;;;26.10;92.20;;;;;;5003031;28;20640;-75
2023/09/30 11:51:56;;;;;;;2.05;1.13;;;26.30;92.10;;;;;;5023980;28;20252;-76
2023/09/30 11:54:28;;;;;;;1.00;0.80;;;26.50;92.30;;;;;;5025516;28;20687;-76
2023/09/30 11:56:58;;;;;;;1.20;1.00;;;26.70;92.20;;;;;;5039061;28;20222;-76
2023/09/30 11:59:26;;;;;;;2.05;1.33;;;26.80;91.70;;;;;;5019743;28;20219;-75
2023/09/30 12:01:54;;;;;;;2.42;0.90;;;26.40;91.50;;;;;;5031686;28;20733;-73
2023/09/30 12:04:40;;;;;;;1.42;1.00;;;26.10;91.50;;;;;;5038172;28;20230;-75
2023/09/30 12:07:08;;;;;;;1.42;1.10;;;26.00;92.00;;;;;;5019356;28;20319;-75
2023/09/30 12:09:37;;;;;;;1.45;1.00;;;25.90;91.90;;;;;;5019669;28;20325;-75
2023/09/30 12:12:09;;;;;;;1.30;1.08;;;26.00;91.40;;;;;;5035566;28;20231;-73
2023/09/30 12:14:38;;;;;;;2.13;1.27;;;26.00;91.80;;;;;;5019375;28;20258;-74
2023/09/30 12:17:06;;;;;;;1.73;0.82;;;25.80;90.30;;;;;;5025229;28;20781;-72
2023/09/30 12:19:34;;;;;;;1.50;1.02;;;25.70;91.60;;;;;;5031894;28;20224;-74
2023/09/30 12:22:02;;;;;;;1.48;1.05;;;25.10;91.30;;;;;;5021988;28;20270;-75
2023/09/30 12:24:31;;;;;;;2.00;1.00;;;24.70;92.70;;;;;;5035678;28;20235;-75
2023/09/30 12:26:59;;;;;;;1.13;0.82;;;24.30;92.60;;;;;;5038215;28;20208;-75
2023/09/30 12:29:28;;;;;;;1.27;0.90;;;24.40;93.00;;;;;;5024667;28;20286;-75
2023/09/30 12:31:56;;;;;;;1.75;1.00;;;24.70;93.80;;;;;;5030304;28;20236;-75
2023/09/30 12:34:25;;;;;;;2.60;1.40;;;24.90;91.90;;;;;;5037328;28;20666;-76
2023/09/30 12:36:55;;;;;;;1.77;0.80;;;25.40;91.70;;;;;;5025650;28;20220;-74
2023/09/30 12:39:24;;;;;;;1.85;1.20;;;24.90;93.10;;;;;;5021962;28;20208;-73
2023/09/30 12:41:54;;;;;;;3.22;1.45;;;24.70;92.10;;;;;;5020875;28;20238;-75
2023/09/30 12:44:23;;;;;;;1.48;1.02;;;24.90;91.70;;;;;;5027845;28;20286;-76
2023/09/30 12:46:52;;;;;;;1.50;1.00;;;25.30;92.10;;;;;;5030345;28;20951;-74
2023/09/30 12:49:20;;;;;;;1.40;0.85;;;25.40;91.00;;;;;;5027986;28;20201;-74
2023/09/30 12:51:48;;;;;;;2.15;1.30;;;25.50;91.60;;;;;;5017342;28;20245;-74
2023/09/30 12:54:18;;;;;;;1.05;0.88;;;25.20;91.10;;;;;;5014203;28;20354;-76
2023/09/30 12:56:47;;;;;;;1.17;1.00;;;25.70;91.80;;;;;;5015335;28;20199;-74
2023/09/30 12:59:15;;;;;;;2.30;1.23;;;25.90;90.90;;;;;;5014194;28;20649;-75
2023/09/30 13:01:44;;;;;;;2.95;1.20;;;26.20;91.30;;;;;;5014301;28;20714;-75
2023/09/30 13:04:13;;;;;;;2.45;0.88;;;26.50;90.30;;;;;;5014042;28;20233;-75
2023/09/30 13:06:41;;;;;;;1.75;1.10;;;26.50;90.30;;;;;;5014367;28;20209;-74
2023/09/30 13:09:09;;;;;;;1.27;1.17;;;26.40;91.10;;;;;;5014781;28;20347;-75
2023/09/30 13:11:37;;;;;;;1.30;1.15;;;25.90;90.80;;;;;;5012959;28;20299;-75
2023/09/30 13:14:05;;;;;;;1.25;0.90;;;25.40;92.00;;;;;;5013678;28;20203;-74
2023/09/30 13:16:33;;;;;;;1.35;0.80;;;25.50;91.00;;;;;;5013569;28;20854;-75
2023/09/30 13:19:02;;;;;;;1.50;1.20;;;25.40;91.30;;;;;;5013561;28;20599;-74
2023/09/30 13:21:32;;;;;;;1.73;1.20;;;25.70;90.50;;;;;;5012339;28;20723;-75
2023/09/30 13:24:00;;;;;;;1.00;0.90;;;26.10;90.70;;;;;;5015215;28;20213;-75
2023/09/30 13:26:28;;;;;;;1.45;0.90;;;26.10;90.10;;;;;;5014215;28;20205;-77
2023/09/30 13:28:55;;;;;;;3.38;1.85;;;26.20;90.20;;;;;;5014395;28;20208;-74
2023/09/30 13:31:24;;;;;;;1.95;1.13;;;26.00;89.10;;;;;;5012564;28;20550;-75